Time;durP1;ratioP1;P1;durP2;ratioP2;P2;SDS_P1;SDS_P2;PMS_P1;PMS_P2;Temp;Humidity;BMP_temperature;BMP_pressure;BME280_temperature;BME280_humidity;BME280_pressure;Samples;Min_cycle;Max_cycle;Signal;HPM_P1;HPM_P2
2022/04/21 00:00:07;;;;;;;;;;;;;;;6.68;65.22;99752.38;4967869;28;20017;-80
2022/04/21 00:02:32;;;;;;;;;;;;;;;6.52;65.11;99762.84;4968159;28;19918;-80
2022/04/21 00:04:57;;;;;;;;;;;;;;;6.44;66.17;99770.66;4968116;28;19980;-80
2022/04/21 00:07:24;;;;;;;;;;;;;;;6.50;65.55;99769.78;4968556;28;20357;-80
2022/04/21 00:09:49;;;;;;;;;;;;;;;6.39;65.69;99777.63;4967721;28;19922;-81
2022/04/21 00:12:15;;;;;;;;;;;;;;;6.48;65.87;99775.94;4967597;28;19929;-81
2022/04/21 00:14:40;;;;;;;;;;;;;;;6.31;66.22;99779.34;4967783;28;20389;-80
2022/04/21 00:17:08;;;;;;;;;;;;;;;6.15;66.09;99777.53;4964548;28;19918;-81
2022/04/21 00:19:33;;;;;;;;;;;;;;;6.02;66.55;99782.72;4964976;28;19922;-81
2022/04/21 00:24:42;;;;;;;;;;;;;;;5.98;67.08;99796.69;4967168;28;20407;-82
2022/04/21 00:27:08;;;;;;;;;;;;;;;6.00;66.98;99789.69;4968265;28;19922;-81
2022/04/21 00:29:35;;;;;;;;;;;;;;;6.24;66.25;99794.19;4968563;28;19918;-81
2022/04/21 00:32:00;;;;;;;;;;;;;;;6.15;66.60;99796.75;4966717;28;19922;-81
2022/04/21 00:34:25;;;;;;;;;;;;;;;6.10;66.98;99803.69;4968524;28;19914;-80
2022/04/21 00:36:51;;;;;;;;;;;;;;;6.02;67.54;99814.13;4968262;28;20017;-81
2022/04/21 00:39:16;;;;;;;;;;;;;;;6.00;67.28;99804.53;4967696;28;19982;-82
2022/04/21 00:41:41;;;;;;;;;;;;;;;5.92;67.88;99814.94;4967382;28;20419;-81
2022/04/21 00:44:07;;;;;;;;;;;;;;;6.05;67.37;99822.00;4966749;28;19922;-81
2022/04/21 00:46:36;;;;;;;;;;;;;;;6.02;67.65;99814.13;4968481;28;19918;-80
2022/04/21 00:49:01;;;;;;;;;;;;;;;5.89;67.94;99809.69;4969543;28;19941;-80
2022/04/21 00:51:27;;;;;;;;;;;;;;;5.88;67.20;99821.88;4971998;28;19921;-80
2022/04/21 00:53:52;;;;;;;;;;;;;;;6.04;67.38;99822.91;4971862;28;19918;-81
2022/04/21 00:56:18;;;;;;;;;;;;;;;6.23;66.23;99823.84;4972399;28;19914;-81
2022/04/21 00:58:44;;;;;;;;;;;;;;;6.30;65.61;99819.50;4969674;28;19922;-81
2022/04/21 01:02:46;;;;;;;;;;;;;;;6.61;64.65;99830.09;4971667;28;19922;-82
2022/04/21 01:03:55;;;;;;;;;;;;;;;6.61;64.21;99843.22;4971433;28;19918;-82
2022/04/21 01:06:21;;;;;;;;;;;;;;;6.65;64.40;99845.00;4971117;28;19933;-81
2022/04/21 01:08:47;;;;;;;;;;;;;;;6.75;64.26;99851.13;4971425;28;19918;-82
2022/04/21 01:11:13;;;;;;;;;;;;;;;6.54;65.13;99852.81;4970912;28;19972;-82
2022/04/21 01:13:38;;;;;;;;;;;;;;;6.22;65.67;99866.63;4971775;28;19922;-81
2022/04/21 01:16:04;;;;;;;;;;;;;;;6.00;66.78;99859.53;4971759;28;19918;-81
2022/04/21 01:18:29;;;;;;;;;;;;;;;5.73;67.89;99859.31;4971787;28;19918;-81
2022/04/21 01:20:55;;;;;;;;;;;;;;;5.82;67.71;99858.50;4970759;28;19918;-81
2022/04/21 01:23:20;;;;;;;;;;;;;;;5.72;67.41;99856.69;4971984;28;19918;-81
2022/04/21 01:25:45;;;;;;;;;;;;;;;5.44;67.99;99859.09;4972019;28;20474;-81
2022/04/21 01:28:11;;;;;;;;;;;;;;;5.26;68.89;99858.94;4970852;28;20021;-81
2022/04/21 01:30:37;;;;;;;;;;;;;;;5.37;68.49;99858.16;4971008;28;20680;-81
2022/04/21 01:33:02;;;;;;;;;;;;;;;5.24;68.47;99860.66;4971046;28;19914;-82
2022/04/21 01:35:28;;;;;;;;;;;;;;;5.17;69.68;99850.16;4971197;28;19922;-81
2022/04/21 01:43:21;;;;;;;;;;;;;;;5.34;68.68;99844.19;4969763;28;19976;-81
2022/04/21 01:45:48;;;;;;;;;;;;;;;5.37;68.61;99831.97;4970786;28;20340;-81
2022/04/21 01:48:13;;;;;;;;;;;;;;;5.42;68.44;99837.25;4970479;28;19928;-80
2022/04/21 01:50:38;;;;;;;;;;;;;;;5.50;68.45;99840.84;4970357;28;20312;-81
2022/04/21 01:53:04;;;;;;;;;;;;;;;5.47;68.37;99835.56;4969848;28;19925;-81
2022/04/21 01:55:29;;;;;;;;;;;;;;;5.25;68.41;99836.25;4967475;28;19922;-80
2022/04/21 01:57:55;;;;;;;;;;;;;;;5.17;68.95;99826.63;4951418;28;20301;-81
2022/04/21 02:00:20;;;;;;;;;;;;;;;5.01;69.58;99829.94;4951143;28;19926;-81
2022/04/21 02:02:46;;;;;;;;;;;;;;;5.11;69.15;99823.03;4970964;28;19972;-81
2022/04/21 02:05:11;;;;;;;;;;;;;;;5.06;69.14;99815.16;4970644;28;19922;-81
2022/04/21 02:07:39;;;;;;;;;;;;;;;5.04;69.23;99819.50;4970527;28;19918;-81
2022/04/21 02:10:05;;;;;;;;;;;;;;;5.01;69.28;99824.72;4969269;28;20363;-80
2022/04/21 02:12:31;;;;;;;;;;;;;;;4.88;69.27;99828.06;4970493;28;19968;-81
2022/04/21 02:14:56;;;;;;;;;;;;;;;5.04;69.25;99824.72;4969019;28;19926;-81
2022/04/21 02:17:24;;;;;;;;;;;;;;;5.02;69.57;99826.47;4957041;28;20566;-80
2022/04/21 02:19:49;;;;;;;;;;;;;;;4.91;69.76;99825.47;4954937;28;19930;-81
2022/04/21 02:22:14;;;;;;;;;;;;;;;4.88;68.87;99831.56;4966797;28;20344;-81
2022/04/21 02:24:40;;;;;;;;;;;;;;;4.39;69.33;99831.00;4961594;28;19969;-80
2022/04/21 02:27:05;;;;;;;;;;;;;;;4.18;70.59;99834.22;4958521;28;20053;-81
2022/04/21 02:29:31;;;;;;;;;;;;;;;4.13;70.69;99837.63;4969489;28;19921;-81
2022/04/21 02:31:56;;;;;;;;;;;;;;;4.19;71.34;99828.16;4968910;28;19953;-80
2022/04/21 02:34:21;;;;;;;;;;;;;;;4.30;70.43;99816.97;4969948;28;19918;-81
2022/04/21 02:36:47;;;;;;;;;;;;;;;4.42;70.76;99815.38;4970124;28;20017;-81
2022/04/21 02:39:12;;;;;;;;;;;;;;;4.36;70.25;99812.69;4968193;28;20400;-81
2022/04/21 02:41:37;;;;;;;;;;;;;;;4.37;70.73;99810.09;4964306;28;20405;-80
2022/04/21 02:44:03;;;;;;;;;;;;;;;4.28;71.21;99813.47;4970744;28;19917;-82
2022/04/21 02:46:29;;;;;;;;;;;;;;;4.28;71.86;99816.06;4969579;28;19913;-82
2022/04/21 02:49:00;;;;;;;;;;;;;;;4.42;72.26;99812.75;4970187;28;19922;-83
2022/04/21 02:51:25;;;;;;;;;;;;;;;4.54;72.36;99818.13;4970862;28;19937;-82
2022/04/21 02:59:19;;;;;;;;;;;;;;;4.66;71.23;99815.66;4969813;28;19944;-82
2022/04/21 03:01:44;;;;;;;;;;;;;;;4.65;71.18;99813.03;4969254;28;19918;-81
2022/04/21 03:04:10;;;;;;;;;;;;;;;4.50;70.87;99811.09;4970378;28;19922;-80
2022/04/21 03:06:35;;;;;;;;;;;;;;;4.24;71.82;99810.78;4969398;28;19953;-81
2022/04/21 03:09:00;;;;;;;;;;;;;;;4.33;71.82;99799.59;4968829;28;19926;-81
2022/04/21 03:11:26;;;;;;;;;;;;;;;4.28;72.93;99803.00;4968623;28;19996;-81
2022/04/21 03:13:51;;;;;;;;;;;;;;;4.36;72.92;99804.84;4969082;28;20307;-82
2022/04/21 03:16:16;;;;;;;;;;;;;;;4.54;71.85;99807.69;4969396;28;19924;-82
2022/04/21 03:18:42;;;;;;;;;;;;;;;4.59;72.05;99816.44;4969316;28;20013;-82
2022/04/21 03:26:35;;;;;;;;;;;;;;;4.02;72.65;99822.69;4969269;28;19980;-81
2022/04/21 03:29:00;;;;;;;;;;;;;;;4.14;72.10;99822.88;4969543;28;20435;-80
2022/04/21 03:31:25;;;;;;;;;;;;;;;3.94;72.39;99823.47;4969050;28;19961;-80
2022/04/21 03:33:51;;;;;;;;;;;;;;;4.09;72.57;99820.19;4969100;28;20020;-81
2022/04/21 03:36:16;;;;;;;;;;;;;;;3.92;73.23;99830.41;4968686;28;20332;-81
2022/04/21 03:38:42;;;;;;;;;;;;;;;3.93;73.83;99839.09;4969270;28;20651;-83
2022/04/21 03:41:07;;;;;;;;;;;;;;;4.16;73.47;99842.03;4968245;28;20000;-83
2022/04/21 03:43:32;;;;;;;;;;;;;;;4.25;73.09;99843.91;4969134;28;19914;-82
2022/04/21 03:45:57;;;;;;;;;;;;;;;4.11;73.82;99846.31;4967925;28;19925;-81
2022/04/21 03:48:23;;;;;;;;;;;;;;;4.07;73.44;99842.78;4969002;28;19921;-82
2022/04/21 03:50:48;;;;;;;;;;;;;;;4.15;73.06;99847.22;4968317;28;19953;-80
2022/04/21 03:53:14;;;;;;;;;;;;;;;4.25;72.94;99846.50;4968920;28;19928;-80
2022/04/21 03:55:39;;;;;;;;;;;;;;;4.46;72.23;99844.16;4959981;28;19958;-80
2022/04/21 03:58:05;;;;;;;;;;;;;;;4.48;71.36;99838.97;4966607;28;19996;-80
2022/04/21 04:00:30;;;;;;;;;;;;;;;4.47;71.19;99838.06;4968537;28;19918;-80
2022/04/21 04:02:56;;;;;;;;;;;;;;;4.57;71.31;99838.16;4968476;28;20463;-80
2022/04/21 04:05:21;;;;;;;;;;;;;;;4.53;71.85;99837.25;4968833;28;19914;-80
2022/04/21 04:13:14;;;;;;;;;;;;;;;4.46;72.07;99832.81;4962042;28;19981;-80
2022/04/21 04:15:39;;;;;;;;;;;;;;;4.67;72.55;99826.97;4968763;28;20338;-80
2022/04/21 04:18:04;;;;;;;;;;;;;;;4.76;72.60;99831.44;4968999;28;19918;-81
2022/04/21 04:20:30;;;;;;;;;;;;;;;4.88;72.59;99839.41;4968000;28;20012;-80
2022/04/21 04:22:55;;;;;;;;;;;;;;;5.02;71.51;99834.31;4966503;28;19948;-81
2022/04/21 04:25:20;;;;;;;;;;;;;;;5.11;71.41;99834.41;4959539;28;20053;-80
2022/04/21 04:27:46;;;;;;;;;;;;;;;5.20;71.75;99837.09;4953505;28;19922;-80
2022/04/21 04:30:11;;;;;;;;;;;;;;;5.19;72.41;99837.97;4966828;28;19957;-81
2022/04/21 04:32:36;;;;;;;;;;;;;;;5.41;71.98;99838.13;4967729;28;19925;-82
2022/04/21 04:35:02;;;;;;;;;;;;;;;5.62;72.60;99829.56;4968148;28;19922;-82
2022/04/21 04:37:28;;;;;;;;;;;;;;;5.79;72.21;99827.06;4967902;28;19973;-81
2022/04/21 04:39:55;;;;;;;;;;;;;;;6.07;72.03;99816.78;4953438;28;20021;-82
2022/04/21 04:42:21;;;;;;;;;;;;;;;6.54;73.47;99821.34;4949674;28;19954;-83
2022/04/21 04:44:48;;;;;;;;;;;;;;;7.04;74.24;99821.47;4948981;28;19918;-82
2022/04/21 04:47:13;;;;;;;;;;;;;;;7.53;72.62;99826.75;4952519;28;19929;-82
2022/04/21 04:49:39;;;;;;;;;;;;;;;7.64;69.59;99824.97;4968248;28;19918;-84
2022/04/21 04:52:05;;;;;;;;;;;;;;;7.94;69.49;99823.22;4968161;28;19922;-84
2022/04/21 04:54:30;;;;;;;;;;;;;;;7.95;67.11;99826.69;4968450;28;20444;-83
2022/04/21 04:56:55;;;;;;;;;;;;;;;8.03;66.60;99824.91;4968390;28;19918;-83
2022/04/21 04:59:21;;;;;;;;;;;;;;;8.08;65.52;99817.91;4968228;28;19918;-82
2022/04/21 05:01:46;;;;;;;;;;;;;;;8.25;64.31;99818.72;4968643;28;19922;-82
2022/04/21 05:04:13;;;;;;;;;;;;;;;8.15;63.03;99827.50;4968091;28;19960;-82
2022/04/21 05:06:38;;;;;;;;;;;;;;;8.06;61.94;99827.53;4968307;28;20320;-83
2022/04/21 05:09:04;;;;;;;;;;;;;;;7.97;61.60;99828.44;4966032;28;20020;-82
2022/04/21 05:11:30;;;;;;;;;;;;;;;8.15;61.76;99824.88;4967265;28;19918;-82
2022/04/21 05:13:55;;;;;;;;;;;;;;;8.03;60.52;99824.91;4968028;28;19921;-82
2022/04/21 05:16:21;;;;;;;;;;;;;;;7.79;62.30;99817.97;4967475;28;19922;-82
2022/04/21 05:18:46;;;;;;;;;;;;;;;8.07;62.02;99824.91;4968096;28;19918;-84
2022/04/21 05:21:12;;;;;;;;;;;;;;;8.08;62.68;99825.81;4967932;28;19952;-82
2022/04/21 05:23:39;;;;;;;;;;;;;;;7.94;62.52;99824.94;4967974;28;19937;-82
2022/04/21 05:26:04;;;;;;;;;;;;;;;8.22;61.50;99825.75;4967442;28;19964;-82
2022/04/21 05:28:30;;;;;;;;;;;;;;;8.28;60.86;99833.63;4968050;28;20415;-81
2022/04/21 05:30:58;;;;;;;;;;;;;;;8.47;61.50;99841.47;4967535;28;19922;-82
2022/04/21 05:33:24;;;;;;;;;;;;;;;8.66;60.95;99847.50;4965786;28;20320;-83
2022/04/21 05:35:49;;;;;;;;;;;;;;;8.55;59.32;99852.81;4970166;28;20016;-82
2022/04/21 05:38:16;;;;;;;;;;;;;;;8.30;62.62;99850.25;4971742;28;20464;-82
2022/04/21 05:40:42;;;;;;;;;;;;;;;8.77;61.53;99849.22;4970396;28;20004;-83
2022/04/21 05:43:08;;;;;;;;;;;;;;;8.70;61.03;99849.25;4971156;28;19960;-83
2022/04/21 05:45:33;;;;;;;;;;;;;;;8.71;58.84;99848.34;4971305;28;19961;-83
2022/04/21 05:47:59;;;;;;;;;;;;;;;9.24;59.43;99847.16;4970376;28;19926;-83
2022/04/21 05:50:26;;;;;;;;;;;;;;;9.46;59.35;99854.91;4971560;28;19937;-83
2022/04/21 05:52:52;;;;;;;;;;;;;;;8.93;58.05;99860.53;4970175;28;19969;-82
2022/04/21 05:55:17;;;;;;;;;;;;;;;8.63;58.66;99861.53;4970916;28;19921;-82
2022/04/21 05:57:43;;;;;;;;;;;;;;;8.66;59.68;99858.03;4970443;28;19965;-80
2022/04/21 06:00:11;;;;;;;;;;;;;;;9.07;58.85;99865.69;4971368;28;19922;-82
2022/04/21 06:02:37;;;;;;;;;;;;;;;9.05;59.69;99867.47;4971136;28;19921;-82
2022/04/21 06:05:03;;;;;;;;;;;;;;;8.76;59.67;99872.91;4970537;28;19922;-82
2022/04/21 06:07:28;;;;;;;;;;;;;;;8.90;60.67;99865.81;4970671;28;20666;-82
2022/04/21 06:09:54;;;;;;;;;;;;;;;9.06;60.21;99863.09;4970389;28;19972;-85
2022/04/21 06:12:19;;;;;;;;;;;;;;;9.36;61.69;99853.22;4970156;28;19957;-84
2022/04/21 06:14:45;;;;;;;;;;;;;;;9.11;58.87;99845.50;4970796;28;19918;-85
2022/04/21 06:17:10;;;;;;;;;;;;;;;9.65;58.75;99847.72;4969347;28;19957;-82
2022/04/21 06:19:35;;;;;;;;;;;;;;;9.60;59.16;99847.75;4969440;28;20320;-82
2022/04/21 06:22:01;;;;;;;;;;;;;;;10.09;58.83;99848.19;4970244;28;19918;-82
2022/04/21 06:24:26;;;;;;;;;;;;;;;10.43;57.23;99846.06;4970515;28;19957;-82
2022/04/21 06:26:51;;;;;;;;;;;;;;;10.52;56.35;99842.47;4970079;28;20281;-83
2022/04/21 06:29:17;;;;;;;;;;;;;;;9.96;57.32;99831.63;4970108;28;20339;-83
2022/04/21 06:31:42;;;;;;;;;;;;;;;9.91;58.24;99829.03;4970330;28;19925;-83
2022/04/21 06:34:07;;;;;;;;;;;;;;;10.36;58.42;99831.22;4968647;28;19917;-82
2022/04/21 06:36:33;;;;;;;;;;;;;;;10.34;58.10;99833.88;4970559;28;19914;-83
2022/04/21 06:38:58;;;;;;;;;;;;;;;10.63;57.17;99837.03;4968749;28;19914;-82
2022/04/21 06:41:24;;;;;;;;;;;;;;;10.47;55.84;99833.72;4969985;28;19922;-83
2022/04/21 06:49:17;;;;;;;;;;;;;;;10.13;58.63;99834.06;4950999;29;20009;-83
2022/04/21 06:51:44;;;;;;;;;;;;;;;10.53;58.52;99836.28;4950873;28;20013;-82
2022/04/21 06:54:09;;;;;;;;;;;;;;;10.64;58.01;99825.59;4950375;28;19942;-83
2022/04/21 06:56:35;;;;;;;;;;;;;;;10.96;57.58;99824.28;4950766;28;19915;-84
2022/04/21 06:59:01;;;;;;;;;;;;;;;11.33;57.05;99818.44;4950766;28;19929;-81
2022/04/21 07:01:26;;;;;;;;;;;;;;;10.77;56.00;99836.84;4951004;28;19918;-80
2022/04/21 07:03:51;;;;;;;;;;;;;;;10.53;57.08;99823.97;4950606;28;19922;-83
2022/04/21 07:06:17;;;;;;;;;;;;;;;10.56;56.31;99833.59;4950506;28;19925;-83
2022/04/21 07:08:42;;;;;;;;;;;;;;;10.21;56.04;99834.88;4950647;28;20452;-83
2022/04/21 07:11:08;;;;;;;;;;;;;;;10.67;59.79;99834.31;4949045;28;19926;-84
2022/04/21 07:13:33;;;;;;;;;;;;;;;11.03;57.27;99844.41;4965399;28;19996;-82
2022/04/21 07:15:58;;;;;;;;;;;;;;;11.38;57.70;99828.00;4969718;28;19956;-83
2022/04/21 07:18:24;;;;;;;;;;;;;;;11.21;55.37;99830.91;4969648;28;19937;-81
2022/04/21 07:20:49;;;;;;;;;;;;;;;11.32;58.77;99830.75;4969396;28;19918;-82
2022/04/21 07:23:15;;;;;;;;;;;;;;;11.63;57.58;99825.84;4968186;28;20293;-81
2022/04/21 07:25:42;;;;;;;;;;;;;;;11.79;56.34;99829.09;4969015;28;19913;-81
2022/04/21 07:28:07;;;;;;;;;;;;;;;12.01;55.44;99828.72;4969434;28;19918;-83
2022/04/21 07:30:32;;;;;;;;;;;;;;;11.57;54.14;99825.97;4958065;28;19919;-83
2022/04/21 07:32:58;;;;;;;;;;;;;;;11.44;53.44;99837.63;4950517;28;20017;-83
2022/04/21 07:35:24;;;;;;;;;;;;;;;12.07;56.97;99825.09;4949399;28;19918;-82
2022/04/21 07:37:49;;;;;;;;;;;;;;;12.20;53.30;99833.66;4949867;28;19918;-83
2022/04/21 07:40:15;;;;;;;;;;;;;;;11.21;51.30;99838.84;4947959;29;19925;-83
2022/04/21 07:42:40;;;;;;;;;;;;;;;11.38;52.83;99835.06;4950000;28;20397;-84
2022/04/21 07:45:06;;;;;;;;;;;;;;;11.61;55.25;99827.63;4949633;28;19925;-84
2022/04/21 07:47:31;;;;;;;;;;;;;;;11.43;54.16;99838.50;4949825;28;19965;-84
2022/04/21 07:49:56;;;;;;;;;;;;;;;10.99;53.09;99840.94;4949804;28;19981;-83
2022/04/21 07:55:07;;;;;;;;;;;;;;;11.53;56.67;99821.63;4949909;29;20378;-83
2022/04/21 07:57:33;;;;;;;;;;;;;;;12.49;53.37;99833.09;4949175;28;19918;-83
2022/04/21 07:59:58;;;;;;;;;;;;;;;12.80;50.00;99820.06;4950155;28;19923;-83
2022/04/21 08:02:24;;;;;;;;;;;;;;;13.07;50.28;99823.00;4949708;28;20001;-83
2022/04/21 08:04:50;;;;;;;;;;;;;;;11.93;48.76;99828.00;4949957;28;20012;-83
2022/04/21 08:07:15;;;;;;;;;;;;;;;12.17;50.56;99835.47;4951042;28;19918;-83
2022/04/21 08:09:40;;;;;;;;;;;;;;;12.67;50.73;99830.06;4949673;28;19966;-83
2022/04/21 08:12:07;;;;;;;;;;;;;;;12.50;49.46;99830.41;4949920;28;20286;-83
2022/04/21 08:14:32;;;;;;;;;;;;;;;12.84;52.86;99842.06;4950113;28;20403;-83
2022/04/21 08:16:58;;;;;;;;;;;;;;;13.32;50.79;99833.88;4949890;28;19970;-83
2022/04/21 08:19:23;;;;;;;;;;;;;;;12.87;47.53;99834.06;4950220;28;19918;-83
2022/04/21 08:21:48;;;;;;;;;;;;;;;13.38;51.10;99833.78;4949824;28;19922;-82
2022/04/21 08:32:43;;;;;;;;;;;;;;;14.46;45.59;99832.72;4949853;29;20057;-83
2022/04/21 08:35:10;;;;;;;;;;;;;;;13.79;43.58;99823.03;4949977;28;19922;-83
2022/04/21 08:37:35;;;;;;;;;;;;;;;14.01;44.20;99830.41;4949580;28;19966;-84
2022/04/21 08:40:01;;;;;;;;;;;;;;;14.19;46.10;99829.91;4949509;28;19918;-83
2022/04/21 08:42:29;;;;;;;;;;;;;;;14.84;45.06;99836.03;4949274;28;20524;-83
2022/04/21 08:44:56;;;;;;;;;;;;;;;14.72;46.24;99841.72;4949082;28;19977;-83
2022/04/21 08:47:22;;;;;;;;;;;;;;;14.84;44.52;99838.69;4949061;29;20566;-83
2022/04/21 08:49:49;;;;;;;;;;;;;;;14.51;43.71;99836.09;4949296;28;19969;-83
2022/04/21 08:52:15;;;;;;;;;;;;;;;15.02;42.89;99840.78;4948901;28;19918;-83
2022/04/21 08:54:41;;;;;;;;;;;;;;;15.25;43.49;99825.91;4948836;28;20393;-83
2022/04/21 08:57:08;;;;;;;;;;;;;;;15.34;45.08;99832.75;4948421;28;19937;-83
2022/04/21 08:59:33;;;;;;;;;;;;;;;15.24;42.15;99825.97;4949355;28;19918;-83
2022/04/21 09:01:59;;;;;;;;;;;;;;;15.33;47.72;99823.00;4947180;29;20333;-83
2022/04/21 09:04:24;;;;;;;;;;;;;;;15.67;44.21;99828.06;4949114;28;19918;-82
2022/04/21 09:06:50;;;;;;;;;;;;;;;15.72;44.55;99827.91;4948645;28;19937;-83
2022/04/21 09:09:21;;;;;;;;;;;;;;;16.19;44.07;99829.84;4949624;28;19918;-82
2022/04/21 09:11:50;;;;;;;;;;;;;;;16.41;41.91;99821.97;4952826;28;19925;-82
2022/04/21 09:14:16;;;;;;;;;;;;;;;16.35;42.92;99816.88;4952470;28;19921;-82
2022/04/21 09:16:42;;;;;;;;;;;;;;;16.43;42.34;99817.44;4953317;28;19926;-82
2022/04/21 09:19:07;;;;;;;;;;;;;;;15.56;42.54;99811.63;4952683;28;19914;-83
2022/04/21 09:21:36;;;;;;;;;;;;;;;15.69;43.42;99809.41;4951939;29;19929;-83
2022/04/21 09:24:17;;;;;;;;;;;;;;;15.63;43.84;99804.28;4951156;29;20372;-82
2022/04/21 09:26:44;;;;;;;;;;;;;;;16.01;42.67;99802.13;4952146;29;19925;-82
2022/04/21 09:29:13;;;;;;;;;;;;;;;15.68;42.77;99799.72;4951136;29;20320;-82
2022/04/21 09:31:40;;;;;;;;;;;;;;;15.56;44.47;99796.53;4952814;28;19918;-81
2022/04/21 09:34:05;;;;;;;;;;;;;;;15.48;43.69;99792.41;4952143;28;20016;-82
2022/04/21 09:36:31;;;;;;;;;;;;;;;15.31;44.59;99792.97;4951774;28;19961;-82
2022/04/21 09:38:58;;;;;;;;;;;;;;;15.38;44.40;99799.81;4952152;28;20705;-82
2022/04/21 09:41:27;;;;;;;;;;;;;;;16.12;41.83;99789.31;4951937;28;19922;-82
2022/04/21 09:43:53;;;;;;;;;;;;;;;16.18;41.96;99782.91;4952218;28;19978;-81
2022/04/21 09:46:22;;;;;;;;;;;;;;;16.11;42.15;99788.44;4951877;28;20294;-82
2022/04/21 09:48:54;;;;;;;;;;;;;;;15.69;42.67;99788.13;4952172;28;20372;-81
2022/04/21 09:51:23;;;;;;;;;;;;;;;15.89;42.38;99775.03;4950484;29;19925;-81
2022/04/21 09:53:57;;;;;;;;;;;;;;;15.94;43.96;99774.84;4951402;28;20413;-81
2022/04/21 09:56:32;;;;;;;;;;;;;;;15.68;43.38;99770.47;4951951;28;20296;-82
2022/04/21 09:59:01;;;;;;;;;;;;;;;15.57;44.52;99777.00;4951701;28;19930;-82
2022/04/21 10:01:28;;;;;;;;;;;;;;;15.53;45.85;99769.19;4952692;28;19919;-82
2022/04/21 10:03:54;;;;;;;;;;;;;;;15.93;44.51;99768.69;4952477;28;20434;-83
2022/04/21 10:06:20;;;;;;;;;;;;;;;16.16;46.36;99767.00;4952193;28;20002;-83
2022/04/21 10:08:47;;;;;;;;;;;;;;;16.12;43.73;99770.69;4951912;28;19918;-84
2022/04/21 10:11:13;;;;;;;;;;;;;;;16.22;44.87;99763.22;4951432;28;19918;-83
2022/04/21 10:13:40;;;;;;;;;;;;;;;16.38;42.84;99764.38;4951336;28;19918;-83
2022/04/21 10:16:07;;;;;;;;;;;;;;;16.07;42.73;99759.34;4951403;28;20609;-83
2022/04/21 10:18:33;;;;;;;;;;;;;;;16.25;43.47;99761.31;4951735;28;19953;-83
2022/04/21 10:20:58;;;;;;;;;;;;;;;16.53;41.71;99762.06;4950831;28;19926;-83
2022/04/21 10:23:27;;;;;;;;;;;;;;;17.08;41.87;99764.38;4951156;28;19922;-83
2022/04/21 10:26:00;;;;;;;;;;;;;;;17.29;40.74;99767.97;4951112;28;19973;-83
2022/04/21 10:28:41;;;;;;;;;;;;;;;17.35;42.75;99757.91;4951062;28;19921;-82
2022/04/21 10:31:27;;;;;;;;;;;;;;;17.41;43.45;99758.56;4951068;28;20656;-82
2022/04/21 10:33:53;;;;;;;;;;;;;;;17.18;42.41;99747.94;4951614;28;19919;-83
2022/04/21 10:36:47;;;;;;;;;;;;;;;16.76;42.95;99756.72;4951835;28;20029;-83
2022/04/21 10:39:26;;;;;;;;;;;;;;;16.94;44.06;99748.94;4948172;29;20357;-82
2022/04/21 10:42:10;;;;;;;;;;;;;;;16.55;43.82;99750.44;4951300;28;19923;-82
2022/04/21 10:44:56;;;;;;;;;;;;;;;16.79;43.89;99747.72;4951325;28;19925;-82
2022/04/21 10:47:35;;;;;;;;;;;;;;;16.77;43.17;99744.25;4950605;28;19918;-83
2022/04/21 10:50:00;;;;;;;;;;;;;;;16.17;43.90;99741.25;4950573;28;19918;-83
2022/04/21 10:57:41;;;;;;;;;;;;;;;16.46;42.75;99746.31;4951425;29;19929;-81
2022/04/21 11:00:09;;;;;;;;;;;;;;;16.45;42.98;99733.94;4951622;28;19919;-81
2022/04/21 11:02:39;;;;;;;;;;;;;;;16.84;44.06;99737.78;4951710;28;19918;-81
2022/04/21 11:05:26;;;;;;;;;;;;;;;16.50;41.67;99739.09;4954242;28;19918;-83
2022/04/21 11:07:52;;;;;;;;;;;;;;;16.80;42.23;99741.47;4951937;28;19922;-84
2022/04/21 11:10:26;;;;;;;;;;;;;;;16.88;39.47;99739.38;4950711;28;19922;-85
2022/04/21 11:12:52;;;;;;;;;;;;;;;17.01;39.48;99742.44;4951319;28;19922;-84
2022/04/21 11:15:31;;;;;;;;;;;;;;;17.07;38.47;99744.88;4950835;28;19925;-84
2022/04/21 11:18:01;;;;;;;;;;;;;;;17.19;38.21;99738.13;4951122;28;19918;-84
2022/04/21 11:20:27;;;;;;;;;;;;;;;17.79;37.79;99735.56;4950783;28;19926;-84
2022/04/21 11:22:53;;;;;;;;;;;;;;;17.99;39.60;99737.38;4951190;28;19968;-84
2022/04/21 11:25:18;;;;;;;;;;;;;;;17.89;36.76;99723.59;4950628;28;19915;-84
2022/04/21 11:27:45;;;;;;;;;;;;;;;18.01;40.08;99715.97;4950455;28;20426;-83
2022/04/21 11:30:11;;;;;;;;;;;;;;;18.27;38.19;99725.44;4948799;29;19918;-83
2022/04/21 11:32:37;;;;;;;;;;;;;;;18.02;39.35;99712.38;4950323;28;19968;-83
2022/04/21 11:35:09;;;;;;;;;;;;;;;17.35;42.78;99709.06;4949968;28;20678;-85
2022/04/21 11:37:44;;;;;;;;;;;;;;;16.97;44.10;99703.53;4949886;28;20317;-83
2022/04/21 11:40:28;;;;;;;;;;;;;;;17.08;42.62;99700.41;4950051;28;19919;-83
2022/04/21 11:42:54;;;;;;;;;;;;;;;17.03;41.00;99697.09;4949985;29;19922;-84
2022/04/21 11:45:20;;;;;;;;;;;;;;;16.95;41.39;99692.94;4949772;28;20393;-83
2022/04/21 11:47:46;;;;;;;;;;;;;;;17.09;43.48;99684.34;4950014;28;19925;-84
2022/04/21 11:50:13;;;;;;;;;;;;;;;17.47;42.32;99684.53;4949747;28;19918;-83
2022/04/21 11:52:42;;;;;;;;;;;;;;;17.88;43.31;99680.94;4949673;28;19977;-84
2022/04/21 11:55:08;;;;;;;;;;;;;;;17.75;43.26;99675.31;4947976;29;20317;-83
2022/04/21 11:57:40;;;;;;;;;;;;;;;17.55;44.94;99662.84;4949513;28;19988;-83
2022/04/21 12:00:06;;;;;;;;;;;;;;;17.58;44.10;99659.16;4949525;28;19925;-83
2022/04/21 12:06:27;;;;;;;;;;;;;;;17.70;46.90;99651.50;4950007;29;19941;-83
2022/04/21 12:08:03;;;;;;;;;;;;;;;17.38;43.39;99649.38;4949003;28;19922;-84
2022/04/21 12:10:29;;;;;;;;;;;;;;;17.63;42.57;99655.38;4949141;28;20658;-83
2022/04/21 12:12:54;;;;;;;;;;;;;;;17.53;42.34;99657.59;4949056;28;19985;-83
2022/04/21 12:15:26;;;;;;;;;;;;;;;17.71;44.45;99657.69;4949321;28;19918;-83
2022/04/21 12:17:51;;;;;;;;;;;;;;;17.39;44.50;99656.47;4949441;28;20453;-83
2022/04/21 12:20:16;;;;;;;;;;;;;;;17.54;44.75;99653.97;4949465;28;19933;-83
2022/04/21 12:22:43;;;;;;;;;;;;;;;17.60;43.92;99644.00;4949517;28;19918;-83
2022/04/21 12:25:12;;;;;;;;;;;;;;;17.69;43.18;99643.56;4948979;28;20021;-83
2022/04/21 12:27:38;;;;;;;;;;;;;;;17.62;44.50;99639.44;4948939;28;19914;-83
2022/04/21 12:30:05;;;;;;;;;;;;;;;17.08;45.63;99641.78;4949170;28;19966;-84
2022/04/21 12:32:32;;;;;;;;;;;;;;;17.43;44.12;99631.41;4949633;28;19922;-84
2022/04/21 12:34:58;;;;;;;;;;;;;;;17.64;45.47;99629.56;4949141;28;19918;-84
2022/04/21 12:37:27;;;;;;;;;;;;;;;17.77;42.96;99632.56;4949445;28;19973;-83
2022/04/21 12:39:54;;;;;;;;;;;;;;;17.44;43.11;99631.34;4948987;28;19965;-83
2022/04/21 12:42:19;;;;;;;;;;;;;;;17.08;47.01;99631.13;4949083;28;19919;-83
2022/04/21 12:44:45;;;;;;;;;;;;;;;17.45;46.88;99634.84;4950357;28;20051;-84
2022/04/21 12:47:15;;;;;;;;;;;;;;;17.62;45.64;99634.09;4953048;28;20009;-83
2022/04/21 12:50:00;;;;;;;;;;;;;;;17.53;44.35;99632.69;4953096;28;19965;-83
2022/04/21 12:52:44;;;;;;;;;;;;;;;17.14;46.00;99623.72;4952415;28;19985;-83
2022/04/21 12:55:22;;;;;;;;;;;;;;;17.48;46.33;99624.91;4959965;28;19921;-83
2022/04/21 12:58:07;;;;;;;;;;;;;;;17.35;46.89;99629.06;4961065;28;20294;-83
2022/04/21 13:00:38;;;;;;;;;;;;;;;17.50;44.83;99622.19;4960081;28;19918;-83
2022/04/21 13:03:03;;;;;;;;;;;;;;;17.38;45.29;99612.06;4951109;29;20038;-83
2022/04/21 13:05:29;;;;;;;;;;;;;;;17.30;43.75;99621.28;4952920;28;20009;-83
2022/04/21 13:07:54;;;;;;;;;;;;;;;17.33;44.19;99621.16;4952941;28;19915;-83
2022/04/21 13:10:21;;;;;;;;;;;;;;;17.82;44.50;99612.72;4970051;28;19941;-83
2022/04/21 13:12:47;;;;;;;;;;;;;;;17.85;45.87;99611.72;4970167;28;20463;-85
2022/04/21 13:15:13;;;;;;;;;;;;;;;18.28;44.94;99617.72;4971644;28;19949;-85
2022/04/21 13:17:40;;;;;;;;;;;;;;;18.31;41.27;99606.03;4970399;28;19922;-85
2022/04/21 13:20:06;;;;;;;;;;;;;;;18.16;41.54;99624.50;4970293;28;20537;-84
2022/04/21 13:22:31;;;;;;;;;;;;;;;18.24;41.89;99629.47;4970995;28;19968;-85
2022/04/21 13:24:57;;;;;;;;;;;;;;;18.06;43.53;99629.44;4971773;28;19918;-86
2022/04/21 13:27:26;;;;;;;;;;;;;;;18.35;43.38;99626.28;4971397;28;19922;-85
2022/04/21 13:29:51;;;;;;;;;;;;;;;18.35;43.28;99627.19;4971182;28;20093;-85
2022/04/21 13:35:00;;;;;;;;;;;;;;;18.22;42.32;99618.88;4971192;28;20374;-85
2022/04/21 13:37:25;;;;;;;;;;;;;;;18.47;42.45;99617.69;4971613;28;19917;-85
2022/04/21 13:39:51;;;;;;;;;;;;;;;18.50;43.53;99614.03;4970781;28;19964;-85